createdAt,value
2017-06-03T00:00:31.926Z,14.79
2017-06-03T00:01:31.962Z,14.82
2017-06-03T00:02:32.041Z,14.75
2017-06-03T00:03:32.031Z,14.82
2017-06-03T00:04:32.079Z,14.77
2017-06-03T00:05:32.343Z,14.75
2017-06-03T00:06:32.137Z,14.82
2017-06-03T00:07:32.211Z,14.85
2017-06-03T00:08:32.220Z,14.75
2017-06-03T00:09:32.225Z,14.69
2017-06-03T00:10:32.309Z,14.77
2017-06-03T00:11:32.297Z,14.7
2017-06-03T00:12:32.337Z,14.79
2017-06-03T00:13:32.401Z,14.67
2017-06-03T00:14:32.440Z,14.71
2017-06-03T00:15:32.441Z,14.64
2017-06-03T00:16:32.523Z,14.66
2017-06-03T00:17:32.534Z,14.66
2017-06-03T00:18:32.540Z,14.61
2017-06-03T00:19:32.624Z,14.74
2017-06-03T00:20:32.633Z,14.77
2017-06-03T00:21:32.704Z,14.7
2017-06-03T00:22:32.939Z,14.71
2017-06-03T00:23:32.744Z,14.75
2017-06-03T00:24:32.741Z,14.77
2017-06-03T00:25:32.788Z,14.7
2017-06-03T00:26:32.843Z,14.74
2017-06-03T00:27:32.846Z,14.67
2017-06-03T00:28:32.909Z,14.75
2017-06-03T00:29:32.941Z,14.71
2017-06-03T00:30:33.039Z,14.66
2017-06-03T00:31:33.052Z,14.71
2017-06-03T00:32:33.056Z,14.67
2017-06-03T00:33:33.055Z,14.67
2017-06-03T00:34:33.113Z,14.77
2017-06-03T00:35:33.155Z,14.75
2017-06-03T00:36:33.158Z,14.74
2017-06-03T00:37:33.244Z,14.83
2017-06-03T00:38:33.246Z,14.71
2017-06-03T00:39:33.309Z,14.7
2017-06-03T00:40:33.421Z,14.66
2017-06-03T00:41:33.356Z,14.7
2017-06-03T00:42:33.387Z,14.7
2017-06-03T00:43:33.451Z,14.67
2017-06-03T00:44:33.441Z,14.7
2017-06-03T00:45:33.465Z,14.67
2017-06-03T00:46:33.509Z,14.74
2017-06-03T00:47:33.536Z,14.6
2017-06-03T00:48:33.585Z,14.67
2017-06-03T00:49:33.617Z,14.7
2017-06-03T00:50:33.685Z,14.66
2017-06-03T00:51:33.698Z,14.61
2017-06-03T00:52:33.757Z,14.71
2017-06-03T00:53:33.735Z,14.6
2017-06-03T00:54:33.800Z,14.59
2017-06-03T00:55:33.830Z,14.61
2017-06-03T00:56:33.840Z,14.51
2017-06-03T00:57:33.926Z,14.51
2017-06-03T00:58:33.898Z,14.41
2017-06-03T00:59:33.958Z,14.39
2017-06-03T01:00:33.981Z,14.41
2017-06-03T01:01:34.018Z,14.38
2017-06-03T01:02:34.041Z,14.36
2017-06-03T01:03:34.080Z,14.39
2017-06-03T01:04:34.140Z,14.3
2017-06-03T01:05:34.191Z,14.39
2017-06-03T01:06:34.208Z,14.33
2017-06-03T01:07:34.220Z,14.33
2017-06-03T01:08:34.227Z,14.33
2017-06-03T01:09:34.316Z,14.36
2017-06-03T01:10:34.345Z,14.33
2017-06-03T01:11:34.405Z,14.36
2017-06-03T01:12:34.396Z,14.42
2017-06-03T01:13:34.452Z,14.46
2017-06-03T01:14:34.503Z,14.64
2017-06-03T01:15:34.481Z,14.6
2017-06-03T01:16:34.540Z,14.61
2017-06-03T01:17:34.566Z,14.63
2017-06-03T01:18:34.588Z,14.53
2017-06-03T01:19:34.644Z,14.53
2017-06-03T01:20:34.698Z,14.6
2017-06-03T01:21:34.721Z,14.64
2017-06-03T01:22:34.728Z,14.66
2017-06-03T01:23:34.790Z,14.66
2017-06-03T01:24:34.818Z,14.63
2017-06-03T01:25:34.860Z,14.67
2017-06-03T01:26:34.894Z,14.69
2017-06-03T01:27:34.947Z,14.69
2017-06-03T01:28:34.956Z,14.69
2017-06-03T01:29:34.940Z,14.74
2017-06-03T01:30:35.054Z,14.7
2017-06-03T01:31:35.088Z,14.77
2017-06-03T01:32:35.041Z,14.67
2017-06-03T01:33:35.149Z,14.71
2017-06-03T01:34:35.141Z,14.74
2017-06-03T01:35:35.170Z,14.63
2017-06-03T01:36:35.254Z,14.51
2017-06-03T01:37:35.259Z,14.49
2017-06-03T01:38:35.295Z,14.49
2017-06-03T01:39:35.308Z,14.45
2017-06-03T01:40:35.359Z,14.45
2017-06-03T01:41:35.420Z,14.31
2017-06-03T01:42:35.456Z,14.39
2017-06-03T01:43:35.463Z,14.33
2017-06-03T01:44:35.494Z,14.44
2017-06-03T01:45:35.558Z,14.44
2017-06-03T01:46:35.550Z,14.51
2017-06-03T01:47:35.619Z,14.46
2017-06-03T01:48:35.658Z,14.51
2017-06-03T01:49:35.669Z,14.48
2017-06-03T01:50:35.722Z,14.57
2017-06-03T01:51:35.761Z,14.52
2017-06-03T01:52:35.772Z,14.45
2017-06-03T01:53:35.798Z,14.6
2017-06-03T01:54:35.854Z,14.48
2017-06-03T01:55:35.870Z,14.46
2017-06-03T01:56:35.922Z,14.48
2017-06-03T01:57:35.959Z,14.36
2017-06-03T01:58:35.948Z,14.38
2017-06-03T01:59:35.950Z,14.31
2017-06-03T02:00:36.061Z,14.21
2017-06-03T02:01:36.102Z,14.16
2017-06-03T02:02:36.103Z,14.2
2017-06-03T02:03:36.162Z,14.13
2017-06-03T02:04:36.162Z,14.05
2017-06-03T02:05:36.186Z,14.09
2017-06-03T02:06:36.263Z,14.03
2017-06-03T02:07:36.269Z,14.12
2017-06-03T02:08:36.313Z,14.05
2017-06-03T02:09:36.365Z,14.08
2017-06-03T02:10:36.378Z,14.06
2017-06-03T02:11:36.390Z,13.99
2017-06-03T02:12:36.380Z,13.99
2017-06-03T02:13:36.446Z,14.02
2017-06-03T02:14:36.529Z,13.97
2017-06-03T02:15:36.524Z,14.06
2017-06-03T02:16:36.556Z,14.05
2017-06-03T02:17:36.613Z,14.01
2017-06-03T02:18:36.620Z,13.99
2017-06-03T02:19:36.647Z,13.97
2017-06-03T02:20:36.680Z,14.02
2017-06-03T02:21:36.745Z,14.05
2017-06-03T02:22:36.777Z,13.95
2017-06-03T02:23:36.786Z,13.97
2017-06-03T02:24:36.795Z,14.02
2017-06-03T02:25:36.885Z,13.97
2017-06-03T02:26:36.888Z,14.01
2017-06-03T02:27:36.939Z,13.93
2017-06-03T02:28:36.981Z,13.9
2017-06-03T02:29:36.983Z,14.01
2017-06-03T02:30:37.039Z,13.99
2017-06-03T02:31:37.078Z,13.97
2017-06-03T02:32:37.133Z,13.97
2017-06-03T02:33:37.139Z,13.97
2017-06-03T02:34:37.152Z,13.94
2017-06-03T02:35:37.172Z,13.93
2017-06-03T02:36:37.240Z,14.02
2017-06-03T02:37:37.227Z,14.02
2017-06-03T02:38:37.313Z,14.01
2017-06-03T02:39:37.376Z,14.03
2017-06-03T02:40:37.372Z,14.06
2017-06-03T02:41:37.411Z,14.03
2017-06-03T02:42:37.412Z,14.01
2017-06-03T02:43:37.481Z,13.97
2017-06-03T02:44:37.508Z,13.9
2017-06-03T02:45:37.575Z,13.79
2017-06-03T02:46:37.550Z,13.73
2017-06-03T02:47:37.619Z,13.7
2017-06-03T02:48:37.689Z,13.68
2017-06-03T02:49:37.690Z,13.7
2017-06-03T02:50:37.709Z,13.58
2017-06-03T02:51:37.725Z,13.69
2017-06-03T02:52:37.777Z,13.65
2017-06-03T02:53:37.836Z,13.65
2017-06-03T02:54:37.819Z,13.65
2017-06-03T02:55:37.872Z,13.65
2017-06-03T02:56:37.886Z,13.65
2017-06-03T02:57:37.969Z,13.6
2017-06-03T02:58:37.964Z,13.53
2017-06-03T02:59:38.011Z,13.54
2017-06-03T03:00:38.017Z,13.51
2017-06-03T03:01:38.048Z,13.53
2017-06-03T03:02:38.136Z,13.55
2017-06-03T03:03:38.171Z,13.55
2017-06-03T03:04:38.152Z,13.53
2017-06-03T03:05:38.216Z,13.55
2017-06-03T03:06:38.276Z,13.55
2017-06-03T03:07:38.276Z,13.54
2017-06-03T03:08:38.316Z,13.66
2017-06-03T03:09:38.320Z,13.53
2017-06-03T03:10:38.357Z,13.51
2017-06-03T03:11:38.388Z,13.51
2017-06-03T03:12:38.430Z,13.47
2017-06-03T03:13:38.477Z,13.53
2017-06-03T03:14:38.511Z,13.51
2017-06-03T03:15:38.572Z,13.55
2017-06-03T03:16:38.615Z,13.47
2017-06-03T03:17:38.595Z,13.5
2017-06-03T03:18:38.599Z,13.44
2017-06-03T03:19:38.674Z,13.51
2017-06-03T03:20:38.716Z,13.45
2017-06-03T03:21:38.772Z,13.47
2017-06-03T03:22:38.776Z,13.5
2017-06-03T03:23:38.812Z,13.51
2017-06-03T03:24:38.861Z,13.5
2017-06-03T03:25:38.879Z,13.51
2017-06-03T03:26:38.879Z,13.54
2017-06-03T03:27:38.918Z,13.5
2017-06-03T03:28:38.973Z,13.5
2017-06-03T03:29:38.983Z,13.5
2017-06-03T03:30:39.025Z,13.5
2017-06-03T03:31:39.080Z,13.53
2017-06-03T03:32:39.088Z,13.54
2017-06-03T03:33:39.116Z,13.55
2017-06-03T03:34:39.198Z,13.53
2017-06-03T03:35:39.201Z,13.63
2017-06-03T03:36:39.241Z,13.66
2017-06-03T03:37:39.252Z,13.62
2017-06-03T03:38:39.335Z,13.62
2017-06-03T03:39:39.340Z,13.62
2017-06-03T03:40:39.400Z,13.53
2017-06-03T03:41:39.401Z,13.62
2017-06-03T03:42:39.463Z,13.53
2017-06-03T03:43:39.450Z,13.55
2017-06-03T03:44:39.501Z,13.63
2017-06-03T03:45:39.491Z,13.62
2017-06-03T03:46:39.594Z,13.5
2017-06-03T03:47:39.599Z,13.65
2017-06-03T03:48:39.684Z,13.7
2017-06-03T03:49:39.621Z,13.65
2017-06-03T03:50:39.681Z,13.72
2017-06-03T03:51:39.686Z,13.72
2017-06-03T03:52:39.790Z,13.68
2017-06-03T03:53:39.787Z,13.76
2017-06-03T03:54:39.820Z,13.78
2017-06-03T03:55:39.850Z,13.87
2017-06-03T03:56:39.926Z,13.81
2017-06-03T03:57:39.886Z,13.87
2017-06-03T03:58:39.975Z,13.93
2017-06-03T03:59:39.977Z,13.86
2017-06-03T04:00:40.004Z,13.97
2017-06-03T04:01:40.046Z,13.97
2017-06-03T04:02:40.063Z,13.94
2017-06-03T04:03:40.109Z,14.03
2017-06-03T04:04:40.125Z,14.06
2017-06-03T04:05:40.171Z,14.06
2017-06-03T04:06:40.202Z,14.08
2017-06-03T04:07:40.234Z,14.23
2017-06-03T04:08:40.269Z,14.41
2017-06-03T04:09:40.303Z,14.48
2017-06-03T04:10:40.330Z,14.61
2017-06-03T04:11:40.373Z,14.61
2017-06-03T04:12:40.407Z,14.61
2017-06-03T04:13:40.440Z,14.61
2017-06-03T04:14:40.472Z,14.67
2017-06-03T04:15:40.506Z,14.77
2017-06-03T04:16:40.542Z,14.8
2017-06-03T04:17:40.573Z,15.18
2017-06-03T04:18:40.603Z,15.43
2017-06-03T04:19:40.645Z,15.68
2017-06-03T04:20:40.673Z,16.27
2017-06-03T04:21:40.711Z,16.88
2017-06-03T04:22:40.739Z,17.42
2017-06-03T04:23:40.780Z,18.03
2017-06-03T04:24:40.811Z,18.53
2017-06-03T04:25:40.856Z,18.91
2017-06-03T04:26:40.884Z,19.16
2017-06-03T04:27:40.909Z,19.32
2017-06-03T04:28:40.952Z,19.1
2017-06-03T04:29:40.989Z,18.72
2017-06-03T04:30:41.021Z,18.32
2017-06-03T04:31:41.050Z,17.86
2017-06-03T04:32:41.087Z,17.43
2017-06-03T04:33:41.142Z,17.07
2017-06-03T04:34:41.177Z,16.84
2017-06-03T04:35:41.214Z,16.55
2017-06-03T04:36:41.244Z,16.42
2017-06-03T04:37:41.284Z,16.32
2017-06-03T04:38:41.302Z,16.21
2017-06-03T04:39:41.351Z,16.27
2017-06-03T04:40:41.391Z,16.33
2017-06-03T04:41:41.440Z,16.29
2017-06-03T04:42:41.460Z,16.3
2017-06-03T04:43:41.483Z,16.32
2017-06-03T04:44:41.526Z,16.36
2017-06-03T04:45:41.571Z,16.44
2017-06-03T04:46:41.595Z,16.42
2017-06-03T04:47:41.639Z,16.42
2017-06-03T04:48:41.677Z,16.44
2017-06-03T04:49:41.694Z,16.48
2017-06-03T04:50:41.744Z,16.45
2017-06-03T04:51:41.788Z,16.36
2017-06-03T04:52:41.805Z,16.29
2017-06-03T04:53:41.863Z,16.3
2017-06-03T04:54:41.890Z,16.34
2017-06-03T04:55:41.915Z,16.32
2017-06-03T04:56:41.959Z,16.33
2017-06-03T04:57:41.993Z,16.33
2017-06-03T04:58:42.006Z,16.33
2017-06-03T04:59:42.060Z,16.34
2017-06-03T05:00:42.101Z,16.45
2017-06-03T05:01:42.140Z,16.52
2017-06-03T05:02:42.152Z,16.52
2017-06-03T05:03:42.172Z,16.54
2017-06-03T05:04:42.241Z,16.52
2017-06-03T05:05:42.468Z,16.48
2017-06-03T05:06:42.337Z,16.54
2017-06-03T05:07:42.354Z,16.62
2017-06-03T05:08:42.387Z,16.65
2017-06-03T05:09:42.415Z,16.66
2017-06-03T05:10:42.454Z,16.77
2017-06-03T05:11:42.489Z,16.8
2017-06-03T05:12:42.521Z,17.1
2017-06-03T05:13:42.556Z,17.35
2017-06-03T05:14:42.596Z,17.45
2017-06-03T05:15:42.634Z,17.5
2017-06-03T05:16:42.676Z,17.57
2017-06-03T05:17:42.670Z,17.5
2017-06-03T05:18:42.714Z,17.52
2017-06-03T05:19:42.769Z,17.43
2017-06-03T05:20:42.847Z,17.47
2017-06-03T05:21:42.854Z,17.43
2017-06-03T05:22:42.884Z,17.49
2017-06-03T05:23:42.922Z,17.46
2017-06-03T05:24:42.948Z,17.5
2017-06-03T05:25:42.996Z,17.68
2017-06-03T05:26:43.021Z,17.63
2017-06-03T05:27:43.059Z,17.66
2017-06-03T05:28:43.092Z,17.74
2017-06-03T05:29:43.132Z,17.8
2017-06-03T05:30:43.152Z,18.05
2017-06-03T05:31:43.185Z,18.26
2017-06-03T05:32:43.239Z,18.63
2017-06-03T05:33:43.286Z,19.6
2017-06-03T05:34:43.317Z,20.18
2017-06-03T05:35:43.344Z,20.83
2017-06-03T05:36:43.389Z,21.22
2017-06-03T05:37:43.400Z,21.45
2017-06-03T05:38:43.441Z,21.61
2017-06-03T05:39:43.463Z,21.43
2017-06-03T05:40:43.513Z,21.27
2017-06-03T05:41:43.556Z,21.01
2017-06-03T05:42:43.588Z,20.78
2017-06-03T05:43:43.640Z,20.81
2017-06-03T05:44:43.684Z,20.74
2017-06-03T05:45:43.735Z,20.51
2017-06-03T05:46:43.747Z,20.27
2017-06-03T05:47:43.785Z,19.85
2017-06-03T05:48:43.816Z,19.65
2017-06-03T05:49:43.862Z,19.38
2017-06-03T05:50:43.895Z,19.16
2017-06-03T05:51:43.929Z,19.02
2017-06-03T05:52:43.970Z,19.02
2017-06-03T05:53:44.010Z,19
2017-06-03T05:54:44.046Z,19.09
2017-06-03T05:55:44.083Z,19.42
2017-06-03T05:56:44.104Z,19.65
2017-06-03T05:57:44.155Z,19.75
2017-06-03T05:58:44.194Z,19.83
2017-06-03T05:59:44.234Z,20.04
2017-06-03T06:00:44.270Z,20.22
2017-06-03T06:01:44.304Z,20.35
2017-06-03T06:02:44.327Z,20.3
2017-06-03T06:03:44.380Z,20.35
2017-06-03T06:04:44.403Z,20.29
2017-06-03T06:05:44.467Z,20.19
2017-06-03T06:06:44.494Z,20.25
2017-06-03T06:07:44.527Z,20.3
2017-06-03T06:08:44.563Z,20.32
2017-06-03T06:09:44.602Z,20.53
2017-06-03T06:10:44.625Z,20.94
2017-06-03T06:11:44.654Z,21.28
2017-06-03T06:12:44.699Z,21.41
2017-06-03T06:13:44.749Z,21.59
2017-06-03T06:14:44.796Z,21.76
2017-06-03T06:15:44.832Z,21.96
2017-06-03T06:16:44.864Z,22.27
2017-06-03T06:17:44.901Z,22.82
2017-06-03T06:18:44.926Z,23.44
2017-06-03T06:19:44.978Z,23.74
2017-06-03T06:20:45.008Z,24.39
2017-06-03T06:21:45.054Z,25.19
2017-06-03T06:22:45.104Z,25.89
2017-06-03T06:23:45.134Z,26.71
2017-06-03T06:24:45.178Z,27.46
2017-06-03T06:25:45.214Z,28.01
2017-06-03T06:26:45.272Z,28.61
2017-06-03T06:27:45.297Z,28.55
2017-06-03T06:28:45.346Z,27.83
2017-06-03T06:29:45.379Z,26.76
2017-06-03T06:30:45.407Z,25.89
2017-06-03T06:31:45.441Z,25.29
2017-06-03T06:32:45.504Z,24.7
2017-06-03T06:33:45.527Z,24.15
2017-06-03T06:34:45.585Z,23.79
2017-06-03T06:35:45.612Z,23.56
2017-06-03T06:36:45.667Z,23.29
2017-06-03T06:37:45.700Z,23.16
2017-06-03T06:38:45.769Z,22.94
2017-06-03T06:39:45.782Z,22.89
2017-06-03T06:40:45.831Z,22.81
2017-06-03T06:41:45.857Z,22.64
2017-06-03T06:42:45.902Z,22.51
2017-06-03T06:43:45.943Z,22.24
2017-06-03T06:44:45.986Z,22.05
2017-06-03T06:45:46.007Z,21.96
2017-06-03T06:46:46.078Z,21.92
2017-06-03T06:47:46.094Z,21.83
2017-06-03T06:48:46.130Z,21.83
2017-06-03T06:49:46.184Z,21.85
2017-06-03T06:50:46.217Z,21.85
2017-06-03T06:51:46.237Z,21.76
2017-06-03T06:52:46.295Z,21.97
2017-06-03T06:53:46.322Z,21.92
2017-06-03T06:54:46.379Z,22.22
2017-06-03T06:55:46.410Z,22.29
2017-06-03T06:56:46.437Z,22.52
2017-06-03T06:57:46.490Z,22.48
2017-06-03T06:58:46.511Z,22.46
2017-06-03T06:59:46.575Z,22.64
2017-06-03T07:00:46.608Z,22.55
2017-06-03T07:01:46.640Z,22.29
2017-06-03T07:02:46.680Z,22.09
2017-06-03T07:03:46.729Z,21.92
2017-06-03T07:04:46.755Z,21.86
2017-06-03T07:05:46.818Z,21.71
2017-06-03T07:06:46.834Z,21.74
2017-06-03T07:07:46.870Z,21.77
2017-06-03T07:08:46.918Z,21.89
2017-06-03T07:09:46.952Z,21.96
2017-06-03T07:10:47.007Z,21.86
2017-06-03T07:11:47.057Z,21.8
2017-06-03T07:12:47.050Z,21.82
2017-06-03T07:13:47.101Z,21.86
2017-06-03T07:14:47.146Z,21.83
2017-06-03T07:15:47.169Z,21.85
2017-06-03T07:16:47.229Z,21.94
2017-06-03T07:17:47.250Z,21.99
2017-06-03T07:18:47.296Z,21.92
2017-06-03T07:19:47.335Z,21.94
2017-06-03T07:20:47.373Z,22.11
2017-06-03T07:21:47.418Z,22.26
2017-06-03T07:22:47.457Z,22.52
2017-06-03T07:23:47.486Z,22.89
2017-06-03T07:24:47.508Z,23.19
2017-06-03T07:25:47.569Z,23.52
2017-06-03T07:26:47.608Z,24.08
2017-06-03T07:27:47.646Z,24.27
2017-06-03T07:28:47.685Z,24.19
2017-06-03T07:29:47.728Z,23.96
2017-06-03T07:30:47.754Z,23.85
2017-06-03T07:31:47.795Z,23.96
2017-06-03T07:32:47.829Z,23.94
2017-06-03T07:33:47.888Z,24.07
2017-06-03T07:34:47.921Z,24.33
2017-06-03T07:35:47.959Z,24.39
2017-06-03T07:36:48.004Z,24.39
2017-06-03T07:37:48.032Z,24.45
2017-06-03T07:38:48.051Z,24.69
2017-06-03T07:39:48.120Z,25.07
2017-06-03T07:40:48.152Z,26.07
2017-06-03T07:41:48.197Z,27
2017-06-03T07:42:48.232Z,28.17
2017-06-03T07:43:48.274Z,29.17
2017-06-03T07:44:48.323Z,30.11
2017-06-03T07:45:48.363Z,30.22
2017-06-03T07:46:48.399Z,30.42
2017-06-03T07:47:48.442Z,30.91
2017-06-03T07:48:48.483Z,31.55
2017-06-03T07:49:48.524Z,32.08
2017-06-03T07:50:48.567Z,32.37
2017-06-03T07:51:48.586Z,32.89
2017-06-03T07:52:48.643Z,33.5
2017-06-03T07:53:48.703Z,34.15
2017-06-03T07:54:48.724Z,33.78
2017-06-03T07:55:48.788Z,33.29
2017-06-03T07:56:48.816Z,32.98
2017-06-03T07:57:48.855Z,32.35
2017-06-03T07:58:48.900Z,31.98
2017-06-03T07:59:48.909Z,31.63
2017-06-03T08:00:48.989Z,31
2017-06-03T08:01:49.009Z,30.96
2017-06-03T08:02:49.079Z,30.63
2017-06-03T08:03:49.106Z,30.48
2017-06-03T08:04:49.160Z,30.04
2017-06-03T08:05:49.199Z,29.87
2017-06-03T08:06:49.247Z,29.69
2017-06-03T08:07:49.293Z,29.54
2017-06-03T08:08:49.327Z,29.1
2017-06-03T08:09:49.363Z,28.88
2017-06-03T08:10:49.377Z,28.73
2017-06-03T08:11:49.457Z,29.15
2017-06-03T08:12:49.500Z,29.63
2017-06-03T08:13:49.525Z,30.04
2017-06-03T08:14:49.592Z,30
2017-06-03T08:15:49.629Z,29.65
2017-06-03T08:16:49.669Z,29.6
2017-06-03T08:17:49.689Z,29.58
2017-06-03T08:18:49.756Z,29.52
2017-06-03T08:19:49.779Z,29.29
2017-06-03T08:20:49.848Z,28.67
2017-06-03T08:21:49.881Z,28.26
2017-06-03T08:22:49.911Z,28.09
2017-06-03T08:23:49.971Z,28.08
2017-06-03T08:24:50.014Z,28.17
2017-06-03T08:25:50.045Z,28.17
2017-06-03T08:26:50.088Z,28.24
2017-06-03T08:27:50.145Z,28.53
2017-06-03T08:28:50.183Z,28.61
2017-06-03T08:29:50.222Z,28.54
2017-06-03T08:30:50.274Z,28.14
2017-06-03T08:31:50.293Z,27.43
2017-06-03T08:32:50.339Z,27.23
2017-06-03T08:33:50.388Z,27.05
2017-06-03T08:34:50.413Z,26.79
2017-06-03T08:35:50.479Z,26.69
2017-06-03T08:36:50.510Z,26.52
2017-06-03T08:37:50.536Z,26.41
2017-06-03T08:38:50.586Z,26.31
2017-06-03T08:39:50.635Z,25.97
2017-06-03T08:40:50.675Z,25.57
2017-06-03T08:41:50.701Z,25.19
2017-06-03T08:42:50.759Z,24.97
2017-06-03T08:43:50.806Z,24.74
2017-06-03T08:44:50.841Z,24.59
2017-06-03T08:45:50.868Z,24.46
2017-06-03T08:46:50.921Z,24.48
2017-06-03T08:47:50.964Z,24.19
2017-06-03T08:48:50.987Z,23.85
2017-06-03T08:49:51.036Z,23.66
2017-06-03T08:50:51.088Z,23.53
2017-06-03T08:51:51.129Z,23.28
2017-06-03T08:52:51.170Z,23.12
2017-06-03T08:53:51.198Z,22.88
2017-06-03T08:54:51.243Z,22.61
2017-06-03T08:55:51.289Z,22.45
2017-06-03T08:56:51.321Z,22.29
2017-06-03T08:57:51.372Z,22.27
2017-06-03T08:58:51.394Z,22.14
2017-06-03T08:59:51.443Z,21.94
2017-06-03T09:00:51.486Z,21.92
2017-06-03T09:01:51.519Z,21.77
2017-06-03T09:02:51.553Z,21.64
2017-06-03T09:03:51.590Z,21.68
2017-06-03T09:04:51.642Z,21.59
2017-06-03T09:05:51.688Z,21.46
2017-06-03T09:06:51.712Z,21.43
2017-06-03T09:07:51.787Z,21.43
2017-06-03T09:08:51.796Z,21.4
2017-06-03T09:09:51.830Z,21.36
2017-06-03T09:10:51.876Z,21.33
2017-06-03T09:11:51.908Z,21.25
2017-06-03T09:12:51.946Z,21.23
2017-06-03T09:13:51.987Z,21.13
2017-06-03T09:14:52.004Z,21.08
2017-06-03T09:15:52.066Z,21.11
2017-06-03T09:16:52.089Z,20.97
2017-06-03T09:17:52.143Z,21.04
2017-06-03T09:18:52.181Z,21.12
2017-06-03T09:19:52.215Z,21.25
2017-06-03T09:20:52.236Z,21.23
2017-06-03T09:21:52.289Z,21.3
2017-06-03T09:22:52.330Z,21.25
2017-06-03T09:23:52.370Z,21.3
2017-06-03T09:24:52.381Z,21.31
2017-06-03T09:25:52.428Z,21.23
2017-06-03T09:26:52.477Z,21.27
2017-06-03T09:27:52.513Z,21.25
2017-06-03T09:28:52.554Z,21.23
2017-06-03T09:29:52.588Z,21.23
2017-06-03T09:30:52.627Z,21.16
2017-06-03T09:31:52.660Z,21.31
2017-06-03T09:32:52.699Z,21.34
2017-06-03T09:33:52.719Z,21.27
2017-06-03T09:34:52.787Z,21.34
2017-06-03T09:35:52.813Z,21.38
2017-06-03T09:36:52.853Z,21.4
2017-06-03T09:37:52.857Z,21.34
2017-06-03T09:38:52.925Z,21.23
2017-06-03T09:39:52.974Z,21.33
2017-06-03T09:40:52.993Z,21.25
2017-06-03T09:41:53.036Z,21.28
2017-06-03T09:42:53.087Z,21.34
2017-06-03T09:43:53.104Z,21.33
2017-06-03T09:44:53.163Z,21.48
2017-06-03T09:45:53.203Z,21.36
2017-06-03T09:46:53.236Z,21.33
2017-06-03T09:47:53.271Z,21.31
2017-06-03T09:48:53.301Z,21.36
2017-06-03T09:49:53.369Z,21.43
2017-06-03T09:50:53.393Z,21.45
2017-06-03T09:51:53.422Z,21.56
2017-06-03T09:52:53.470Z,21.58
2017-06-03T09:53:53.499Z,21.67
2017-06-03T09:54:53.549Z,21.71
2017-06-03T09:55:53.584Z,21.59
2017-06-03T09:56:53.615Z,21.77
2017-06-03T09:57:53.655Z,21.76
2017-06-03T09:58:53.700Z,21.71
2017-06-03T09:59:53.717Z,21.76
2017-06-03T10:00:53.764Z,21.73
2017-06-03T10:01:53.803Z,21.64
2017-06-03T10:02:53.842Z,21.71
2017-06-03T10:03:53.886Z,21.62
2017-06-03T10:04:53.917Z,21.74
2017-06-03T10:05:53.965Z,21.62
2017-06-03T10:06:53.976Z,21.58
2017-06-03T10:07:54.038Z,21.61
2017-06-03T10:08:54.073Z,21.51
2017-06-03T10:09:54.100Z,21.46
2017-06-03T10:10:54.139Z,21.4
2017-06-03T10:11:54.191Z,21.49
2017-06-03T10:12:54.211Z,21.33
2017-06-03T10:13:54.263Z,21.34
2017-06-03T10:14:54.285Z,21.21
2017-06-03T10:15:54.344Z,21.25
2017-06-03T10:16:54.382Z,21.31
2017-06-03T10:17:54.419Z,21.27
2017-06-03T10:18:54.449Z,21.31
2017-06-03T10:19:54.490Z,21.31
2017-06-03T10:20:54.515Z,21.37
2017-06-03T10:21:54.553Z,21.37
2017-06-03T10:22:54.585Z,21.21
2017-06-03T10:23:54.645Z,21.36
2017-06-03T10:24:54.664Z,21.31
2017-06-03T10:25:54.713Z,21.18
2017-06-03T10:26:54.761Z,21.27
2017-06-03T10:27:54.794Z,21.28
2017-06-03T10:28:54.829Z,21.34
2017-06-03T10:29:54.837Z,21.23
2017-06-03T10:30:54.895Z,21.18
2017-06-03T10:31:54.944Z,21.13
2017-06-03T10:32:54.966Z,21.08
2017-06-03T10:33:55.019Z,21
2017-06-03T10:34:55.064Z,20.94
2017-06-03T10:35:55.083Z,20.79
2017-06-03T10:36:55.139Z,20.79
2017-06-03T10:37:55.167Z,20.58
2017-06-03T10:38:55.212Z,20.61
2017-06-03T10:39:55.237Z,20.66
2017-06-03T10:40:55.286Z,20.56
2017-06-03T10:41:55.321Z,20.4
2017-06-03T10:42:55.358Z,20.44
2017-06-03T10:43:55.393Z,20.38
2017-06-03T10:44:55.421Z,20.29
2017-06-03T10:45:55.459Z,20.05
2017-06-03T10:46:55.522Z,20.01
2017-06-03T10:47:55.563Z,19.87
2017-06-03T10:48:55.595Z,19.74
2017-06-03T10:49:55.618Z,19.64
2017-06-03T10:50:55.670Z,19.61
2017-06-03T10:51:55.701Z,19.38
2017-06-03T10:52:55.732Z,19.38
2017-06-03T10:53:55.775Z,19.28
2017-06-03T10:54:55.782Z,19.15
2017-06-03T10:55:55.848Z,19.2
2017-06-03T10:56:55.893Z,19.15
2017-06-03T10:57:55.905Z,19.13
2017-06-03T10:58:55.969Z,19.05
2017-06-03T10:59:55.996Z,19.02
2017-06-03T11:00:56.023Z,18.97
2017-06-03T11:01:56.070Z,18.97
2017-06-03T11:02:56.094Z,19.05
2017-06-03T11:03:56.146Z,19.02
2017-06-03T11:04:56.194Z,19
2017-06-03T11:05:56.222Z,18.97
2017-06-03T11:06:56.255Z,18.97
2017-06-03T11:07:56.296Z,19
2017-06-03T11:08:56.325Z,18.93
2017-06-03T11:09:56.373Z,18.94
2017-06-03T11:10:56.403Z,18.97
2017-06-03T11:11:56.436Z,18.84
2017-06-03T11:12:56.478Z,18.82
2017-06-03T11:13:56.504Z,18.75
2017-06-03T11:14:56.553Z,18.66
2017-06-03T11:15:56.596Z,18.65
2017-06-03T11:16:56.611Z,18.54
2017-06-03T11:17:56.671Z,18.49
2017-06-03T11:18:56.692Z,18.53
2017-06-03T11:19:56.741Z,18.57
2017-06-03T11:20:56.776Z,18.57
2017-06-03T11:21:56.793Z,18.5
2017-06-03T11:22:56.829Z,18.39
2017-06-03T11:23:56.892Z,18.47
2017-06-03T11:24:56.922Z,18.42
2017-06-03T11:25:56.969Z,18.29
2017-06-03T11:26:57.005Z,18.29
2017-06-03T11:27:57.026Z,18.31
2017-06-03T11:28:57.072Z,18.26
2017-06-03T11:29:57.103Z,18.31
2017-06-03T11:30:57.142Z,18.26
2017-06-03T11:31:57.174Z,18.38
2017-06-03T11:32:57.203Z,18.42
2017-06-03T11:33:57.246Z,18.51
2017-06-03T11:34:57.291Z,18.51
2017-06-03T11:35:57.315Z,18.61
2017-06-03T11:36:57.358Z,18.79
2017-06-03T11:37:57.382Z,18.81
2017-06-03T11:38:57.427Z,18.89
2017-06-03T11:39:57.470Z,18.89
2017-06-03T11:40:57.490Z,18.97
2017-06-03T11:41:57.542Z,18.89
2017-06-03T11:42:57.563Z,18.86
2017-06-03T11:43:57.611Z,18.87
2017-06-03T11:44:57.650Z,18.89
2017-06-03T11:45:57.705Z,18.75
2017-06-03T11:46:57.734Z,18.74
2017-06-03T11:47:57.763Z,18.78
2017-06-03T11:48:57.786Z,18.61
2017-06-03T11:49:57.838Z,18.66
2017-06-03T11:50:57.868Z,18.76
2017-06-03T11:51:57.919Z,18.82
2017-06-03T11:52:57.934Z,18.97
2017-06-03T11:53:57.988Z,19.07
2017-06-03T11:54:58.012Z,19.15
2017-06-03T11:55:58.065Z,19.02
2017-06-03T11:56:58.101Z,18.97
2017-06-03T11:57:58.133Z,18.91
2017-06-03T11:58:58.159Z,18.87
2017-06-03T11:59:58.202Z,18.75
2017-06-03T12:00:58.219Z,18.59
2017-06-03T12:01:58.275Z,18.53
2017-06-03T12:02:58.314Z,18.54
2017-06-03T12:03:58.357Z,18.54
2017-06-03T12:04:58.400Z,18.44
2017-06-03T12:05:58.410Z,18.41
2017-06-03T12:06:58.460Z,18.42
2017-06-03T12:07:58.502Z,18.36
2017-06-03T12:08:58.515Z,18.41
2017-06-03T12:09:58.571Z,18.45
2017-06-03T12:10:58.611Z,18.6
2017-06-03T12:11:58.634Z,18.54
2017-06-03T12:12:58.679Z,18.51
2017-06-03T12:13:58.712Z,18.53
2017-06-03T12:14:58.760Z,18.6
2017-06-03T12:15:58.789Z,18.6
2017-06-03T12:16:58.831Z,18.61
2017-06-03T12:17:58.858Z,18.71
2017-06-03T12:18:58.902Z,18.69
2017-06-03T12:19:58.935Z,18.74
2017-06-03T12:20:58.980Z,18.68
2017-06-03T12:21:59.014Z,18.74
2017-06-03T12:22:59.036Z,18.68
2017-06-03T12:23:59.081Z,18.63
2017-06-03T12:24:59.110Z,18.68
2017-06-03T12:25:59.153Z,18.68
2017-06-03T12:26:59.197Z,18.63
2017-06-03T12:27:59.231Z,18.65
2017-06-03T12:28:59.266Z,18.57
2017-06-03T12:29:59.282Z,18.57
2017-06-03T12:30:59.330Z,18.66
2017-06-03T12:31:59.374Z,18.61
2017-06-03T12:32:59.411Z,18.74
2017-06-03T12:33:59.453Z,18.84
2017-06-03T12:34:59.475Z,18.97
2017-06-03T12:35:59.537Z,19
2017-06-03T12:36:59.552Z,18.9
2017-06-03T12:37:59.589Z,18.82
2017-06-03T12:38:59.635Z,18.63
2017-06-03T12:39:59.661Z,18.54
2017-06-03T12:40:59.696Z,18.44
2017-06-03T12:41:59.735Z,18.38
2017-06-03T12:42:59.775Z,18.11
2017-06-03T12:43:59.804Z,18.06
2017-06-03T12:44:59.834Z,18.08
2017-06-03T12:45:59.883Z,17.92
2017-06-03T12:46:59.901Z,17.86
2017-06-03T12:47:59.956Z,17.71
2017-06-03T12:49:00.001Z,17.76
2017-06-03T12:50:00.009Z,17.6
2017-06-03T12:51:00.072Z,17.46
2017-06-03T12:52:00.101Z,17.49
2017-06-03T12:53:00.136Z,17.49
2017-06-03T12:54:00.172Z,17.57
2017-06-03T12:55:00.208Z,17.55
2017-06-03T12:56:00.242Z,17.54